-
-
141 m
6 m
0
5,3
11
21,25 km

Vista 21 vegades, descarregada 1 vegades

a prop de Cerca, Lisboa (Portugal)

Este era o tempo durante a corrida LPPT 100900Z 08006KT 9999 -DZ SCT010 BKN020 16/14 Q1008 NOSIG. A chuva que caiu ajudou bastante este longo percurso, bastante difícil e em alguns sítios, completamente inóspito. Saltar valados e correr em terrenos lavrados e com chuva, faz com que os ténis pesem muito. Bom trajecto mas muito duro. Obrigado Vasco por este treino.

Comentaris

    Si vols, pots o aquesta ruta.